sensor_id;sensor_type;location;lat;lon;timestamp;P1;durP1;ratioP1;P2;durP2;ratioP2
46753;SDS011;32500;50.620;3.400;2023-02-01T00:01:53;63.08;;;48.45;;
46753;SDS011;32500;50.620;3.400;2023-02-01T00:04:19;67.15;;;48.72;;
46753;SDS011;32500;50.620;3.400;2023-02-01T00:06:45;62.05;;;48.25;;
46753;SDS011;32500;50.620;3.400;2023-02-01T00:09:11;64.03;;;48.65;;
46753;SDS011;32500;50.620;3.400;2023-02-01T00:11:37;64.47;;;48.58;;
46753;SDS011;32500;50.620;3.400;2023-02-01T00:14:04;66.55;;;48.97;;
46753;SDS011;32500;50.620;3.400;2023-02-01T00:16:30;64.10;;;48.58;;
46753;SDS011;32500;50.620;3.400;2023-02-01T00:19:04;64.47;;;48.65;;
46753;SDS011;32500;50.620;3.400;2023-02-01T00:21:32;64.30;;;48.45;;
46753;SDS011;32500;50.620;3.400;2023-02-01T00:23:58;63.17;;;48.13;;
46753;SDS011;32500;50.620;3.400;2023-02-01T00:26:26;65.70;;;48.30;;
46753;SDS011;32500;50.620;3.400;2023-02-01T00:29:01;62.85;;;48.38;;
46753;SDS011;32500;50.620;3.400;2023-02-01T00:31:28;64.07;;;48.50;;
46753;SDS011;32500;50.620;3.400;2023-02-01T00:33:54;64.20;;;48.50;;
46753;SDS011;32500;50.620;3.400;2023-02-01T00:36:20;63.20;;;48.15;;
46753;SDS011;32500;50.620;3.400;2023-02-01T00:38:45;63.22;;;48.30;;
46753;SDS011;32500;50.620;3.400;2023-02-01T00:41:12;61.92;;;48.03;;
46753;SDS011;32500;50.620;3.400;2023-02-01T00:43:40;65.15;;;48.15;;
46753;SDS011;32500;50.620;3.400;2023-02-01T00:46:06;63.55;;;48.20;;
46753;SDS011;32500;50.620;3.400;2023-02-01T00:48:32;63.20;;;48.42;;
46753;SDS011;32500;50.620;3.400;2023-02-01T00:51:02;64.40;;;48.22;;
46753;SDS011;32500;50.620;3.400;2023-02-01T00:53:29;64.37;;;48.20;;
46753;SDS011;32500;50.620;3.400;2023-02-01T00:55:55;62.88;;;48.47;;
46753;SDS011;32500;50.620;3.400;2023-02-01T00:58:21;62.35;;;48.28;;
46753;SDS011;32500;50.620;3.400;2023-02-01T01:00:49;64.85;;;48.42;;
46753;SDS011;32500;50.620;3.400;2023-02-01T01:03:14;62.70;;;48.22;;
46753;SDS011;32500;50.620;3.400;2023-02-01T01:05:46;63.92;;;48.10;;
46753;SDS011;32500;50.620;3.400;2023-02-01T01:08:13;61.63;;;47.80;;
46753;SDS011;32500;50.620;3.400;2023-02-01T01:10:40;62.03;;;48.17;;
46753;SDS011;32500;50.620;3.400;2023-02-01T01:13:07;61.33;;;47.83;;
46753;SDS011;32500;50.620;3.400;2023-02-01T01:15:37;62.33;;;48.03;;
46753;SDS011;32500;50.620;3.400;2023-02-01T01:18:04;61.35;;;47.65;;
46753;SDS011;32500;50.620;3.400;2023-02-01T01:20:30;62.83;;;48.03;;
46753;SDS011;32500;50.620;3.400;2023-02-01T01:22:55;63.85;;;47.95;;
46753;SDS011;32500;50.620;3.400;2023-02-01T01:25:21;65.07;;;48.05;;
46753;SDS011;32500;50.620;3.400;2023-02-01T01:27:47;62.03;;;48.15;;
46753;SDS011;32500;50.620;3.400;2023-02-01T01:30:12;61.33;;;47.95;;
46753;SDS011;32500;50.620;3.400;2023-02-01T01:32:38;63.95;;;48.20;;
46753;SDS011;32500;50.620;3.400;2023-02-01T01:35:04;62.75;;;48.10;;
46753;SDS011;32500;50.620;3.400;2023-02-01T01:37:31;61.75;;;47.78;;
46753;SDS011;32500;50.620;3.400;2023-02-01T01:39:57;61.97;;;48.05;;
46753;SDS011;32500;50.620;3.400;2023-02-01T01:42:22;62.28;;;47.83;;
46753;SDS011;32500;50.620;3.400;2023-02-01T01:49:45;64.20;;;47.92;;
46753;SDS011;32500;50.620;3.400;2023-02-01T01:52:11;61.65;;;47.80;;
46753;SDS011;32500;50.620;3.400;2023-02-01T01:54:38;60.75;;;47.75;;
46753;SDS011;32500;50.620;3.400;2023-02-01T01:57:09;62.88;;;47.60;;
46753;SDS011;32500;50.620;3.400;2023-02-01T01:59:39;63.47;;;48.10;;
46753;SDS011;32500;50.620;3.400;2023-02-01T02:02:08;62.92;;;48.28;;
46753;SDS011;32500;50.620;3.400;2023-02-01T02:04:34;61.15;;;47.95;;
46753;SDS011;32500;50.620;3.400;2023-02-01T02:07:03;61.40;;;48.00;;
46753;SDS011;32500;50.620;3.400;2023-02-01T02:11:58;62.15;;;47.90;;
46753;SDS011;32500;50.620;3.400;2023-02-01T02:14:24;61.15;;;47.92;;
46753;SDS011;32500;50.620;3.400;2023-02-01T02:22:11;62.13;;;48.22;;
46753;SDS011;32500;50.620;3.400;2023-02-01T02:36:08;63.83;;;47.90;;
46753;SDS011;32500;50.620;3.400;2023-02-01T02:41:41;62.38;;;47.65;;
46753;SDS011;32500;50.620;3.400;2023-02-01T02:44:46;64.22;;;47.70;;
46753;SDS011;32500;50.620;3.400;2023-02-01T02:51:01;63.38;;;47.83;;
46753;SDS011;32500;50.620;3.400;2023-02-01T02:56:40;60.88;;;47.90;;
46753;SDS011;32500;50.620;3.400;2023-02-01T02:59:25;63.35;;;48.20;;
46753;SDS011;32500;50.620;3.400;2023-02-01T03:02:11;62.03;;;47.88;;
46753;SDS011;32500;50.620;3.400;2023-02-01T03:04:57;61.78;;;47.60;;
46753;SDS011;32500;50.620;3.400;2023-02-01T03:10:10;64.30;;;47.75;;
46753;SDS011;32500;50.620;3.400;2023-02-01T03:12:46;62.90;;;47.33;;
46753;SDS011;32500;50.620;3.400;2023-02-01T03:15:42;60.92;;;47.38;;
46753;SDS011;32500;50.620;3.400;2023-02-01T03:18:57;60.03;;;47.20;;
46753;SDS011;32500;50.620;3.400;2023-02-01T03:24:00;60.88;;;47.42;;
46753;SDS011;32500;50.620;3.400;2023-02-01T03:26:36;60.35;;;47.60;;
46753;SDS011;32500;50.620;3.400;2023-02-01T03:29:11;62.08;;;47.33;;
46753;SDS011;32500;50.620;3.400;2023-02-01T03:31:40;62.08;;;47.65;;
46753;SDS011;32500;50.620;3.400;2023-02-01T03:34:06;63.10;;;47.47;;
46753;SDS011;32500;50.620;3.400;2023-02-01T03:39:16;61.22;;;47.60;;
46753;SDS011;32500;50.620;3.400;2023-02-01T03:41:47;63.30;;;47.78;;
46753;SDS011;32500;50.620;3.400;2023-02-01T03:44:35;60.55;;;47.72;;
46753;SDS011;32500;50.620;3.400;2023-02-01T03:47:10;63.08;;;47.80;;
46753;SDS011;32500;50.620;3.400;2023-02-01T03:49:55;62.28;;;47.58;;
46753;SDS011;32500;50.620;3.400;2023-02-01T03:52:28;60.58;;;47.45;;
46753;SDS011;32500;50.620;3.400;2023-02-01T03:55:02;63.20;;;47.83;;
46753;SDS011;32500;50.620;3.400;2023-02-01T03:57:31;61.10;;;47.47;;
46753;SDS011;32500;50.620;3.400;2023-02-01T04:00:04;65.50;;;47.63;;
46753;SDS011;32500;50.620;3.400;2023-02-01T04:02:30;62.05;;;47.33;;
46753;SDS011;32500;50.620;3.400;2023-02-01T04:04:56;62.13;;;47.60;;
46753;SDS011;32500;50.620;3.400;2023-02-01T04:07:21;64.22;;;47.40;;
46753;SDS011;32500;50.620;3.400;2023-02-01T04:09:47;61.10;;;47.40;;
46753;SDS011;32500;50.620;3.400;2023-02-01T04:12:13;64.70;;;47.85;;
46753;SDS011;32500;50.620;3.400;2023-02-01T04:14:38;63.25;;;47.75;;
46753;SDS011;32500;50.620;3.400;2023-02-01T04:17:04;62.10;;;47.65;;
46753;SDS011;32500;50.620;3.400;2023-02-01T04:19:30;65.28;;;48.03;;
46753;SDS011;32500;50.620;3.400;2023-02-01T04:21:55;60.83;;;47.53;;
46753;SDS011;32500;50.620;3.400;2023-02-01T04:24:21;62.25;;;47.92;;
46753;SDS011;32500;50.620;3.400;2023-02-01T04:26:47;62.45;;;47.55;;
46753;SDS011;32500;50.620;3.400;2023-02-01T04:29:12;67.13;;;48.00;;
46753;SDS011;32500;50.620;3.400;2023-02-01T04:31:38;64.55;;;47.50;;
46753;SDS011;32500;50.620;3.400;2023-02-01T04:34:03;69.70;;;48.10;;
46753;SDS011;32500;50.620;3.400;2023-02-01T04:36:29;62.17;;;47.45;;
46753;SDS011;32500;50.620;3.400;2023-02-01T04:38:55;59.83;;;47.35;;
46753;SDS011;32500;50.620;3.400;2023-02-01T04:41:20;61.63;;;47.47;;
46753;SDS011;32500;50.620;3.400;2023-02-01T04:43:48;64.78;;;47.00;;
46753;SDS011;32500;50.620;3.400;2023-02-01T04:46:14;61.75;;;47.72;;
46753;SDS011;32500;50.620;3.400;2023-02-01T04:48:40;63.05;;;47.47;;
46753;SDS011;32500;50.620;3.400;2023-02-01T04:51:06;62.92;;;47.47;;
46753;SDS011;32500;50.620;3.400;2023-02-01T04:53:32;64.72;;;47.83;;
46753;SDS011;32500;50.620;3.400;2023-02-01T04:55:58;65.43;;;47.03;;
46753;SDS011;32500;50.620;3.400;2023-02-01T04:58:23;64.45;;;47.60;;
46753;SDS011;32500;50.620;3.400;2023-02-01T05:00:49;64.53;;;47.95;;
46753;SDS011;32500;50.620;3.400;2023-02-01T05:03:16;64.35;;;47.83;;
46753;SDS011;32500;50.620;3.400;2023-02-01T05:05:42;62.35;;;47.30;;
46753;SDS011;32500;50.620;3.400;2023-02-01T05:08:07;64.05;;;47.92;;
46753;SDS011;32500;50.620;3.400;2023-02-01T05:10:33;63.40;;;47.35;;
46753;SDS011;32500;50.620;3.400;2023-02-01T05:12:59;63.45;;;47.45;;
46753;SDS011;32500;50.620;3.400;2023-02-01T05:15:43;63.33;;;47.70;;
46753;SDS011;32500;50.620;3.400;2023-02-01T05:18:11;65.10;;;47.58;;
46753;SDS011;32500;50.620;3.400;2023-02-01T05:20:37;60.90;;;47.25;;
46753;SDS011;32500;50.620;3.400;2023-02-01T05:23:03;63.33;;;47.72;;
46753;SDS011;32500;50.620;3.400;2023-02-01T05:25:29;61.03;;;47.78;;
46753;SDS011;32500;50.620;3.400;2023-02-01T05:27:54;63.10;;;47.38;;
46753;SDS011;32500;50.620;3.400;2023-02-01T05:30:20;62.15;;;47.33;;
46753;SDS011;32500;50.620;3.400;2023-02-01T05:32:48;62.55;;;47.47;;
46753;SDS011;32500;50.620;3.400;2023-02-01T05:35:15;63.28;;;47.53;;
46753;SDS011;32500;50.620;3.400;2023-02-01T05:37:41;61.67;;;47.75;;
46753;SDS011;32500;50.620;3.400;2023-02-01T05:40:07;66.13;;;47.58;;
46753;SDS011;32500;50.620;3.400;2023-02-01T05:42:33;63.83;;;47.45;;
46753;SDS011;32500;50.620;3.400;2023-02-01T05:44:58;64.07;;;47.78;;
46753;SDS011;32500;50.620;3.400;2023-02-01T05:47:24;61.10;;;47.53;;
46753;SDS011;32500;50.620;3.400;2023-02-01T05:49:50;65.43;;;47.70;;
46753;SDS011;32500;50.620;3.400;2023-02-01T05:52:15;66.70;;;47.90;;
46753;SDS011;32500;50.620;3.400;2023-02-01T05:54:44;66.53;;;47.88;;
46753;SDS011;32500;50.620;3.400;2023-02-01T05:57:13;63.33;;;47.15;;
46753;SDS011;32500;50.620;3.400;2023-02-01T05:59:39;62.70;;;47.45;;
46753;SDS011;32500;50.620;3.400;2023-02-01T06:02:06;64.20;;;47.63;;
46753;SDS011;32500;50.620;3.400;2023-02-01T06:04:32;61.33;;;47.15;;
46753;SDS011;32500;50.620;3.400;2023-02-01T06:06:58;63.60;;;47.22;;
46753;SDS011;32500;50.620;3.400;2023-02-01T06:09:24;67.78;;;47.75;;
46753;SDS011;32500;50.620;3.400;2023-02-01T06:11:49;63.33;;;47.42;;
46753;SDS011;32500;50.620;3.400;2023-02-01T06:14:15;63.58;;;47.65;;
46753;SDS011;32500;50.620;3.400;2023-02-01T06:16:41;60.65;;;47.50;;
46753;SDS011;32500;50.620;3.400;2023-02-01T06:19:06;65.00;;;47.78;;
46753;SDS011;32500;50.620;3.400;2023-02-01T06:21:32;63.17;;;47.47;;
46753;SDS011;32500;50.620;3.400;2023-02-01T06:23:59;65.72;;;47.40;;
46753;SDS011;32500;50.620;3.400;2023-02-01T06:26:25;63.60;;;47.63;;
46753;SDS011;32500;50.620;3.400;2023-02-01T06:28:53;66.72;;;48.08;;
46753;SDS011;32500;50.620;3.400;2023-02-01T06:31:20;66.28;;;47.38;;
46753;SDS011;32500;50.620;3.400;2023-02-01T06:33:46;63.08;;;47.45;;
46753;SDS011;32500;50.620;3.400;2023-02-01T06:36:14;68.10;;;47.35;;
46753;SDS011;32500;50.620;3.400;2023-02-01T06:38:41;63.95;;;47.70;;
46753;SDS011;32500;50.620;3.400;2023-02-01T06:41:07;63.80;;;47.88;;
46753;SDS011;32500;50.620;3.400;2023-02-01T06:43:33;61.33;;;47.85;;
46753;SDS011;32500;50.620;3.400;2023-02-01T06:46:03;65.53;;;47.97;;
46753;SDS011;32500;50.620;3.400;2023-02-01T06:48:31;68.25;;;47.65;;
46753;SDS011;32500;50.620;3.400;2023-02-01T06:50:57;63.72;;;47.58;;
46753;SDS011;32500;50.620;3.400;2023-02-01T06:53:23;68.65;;;47.63;;
46753;SDS011;32500;50.620;3.400;2023-02-01T06:55:56;63.20;;;47.75;;
46753;SDS011;32500;50.620;3.400;2023-02-01T06:58:23;65.25;;;47.58;;
46753;SDS011;32500;50.620;3.400;2023-02-01T07:00:49;59.38;;;47.17;;
46753;SDS011;32500;50.620;3.400;2023-02-01T07:03:15;63.55;;;47.50;;
46753;SDS011;32500;50.620;3.400;2023-02-01T07:05:41;65.05;;;47.97;;
46753;SDS011;32500;50.620;3.400;2023-02-01T07:08:07;59.33;;;47.58;;
46753;SDS011;32500;50.620;3.400;2023-02-01T07:10:33;63.10;;;47.53;;
46753;SDS011;32500;50.620;3.400;2023-02-01T07:12:59;63.00;;;47.50;;
46753;SDS011;32500;50.620;3.400;2023-02-01T07:15:25;65.53;;;47.58;;
46753;SDS011;32500;50.620;3.400;2023-02-01T07:17:50;61.88;;;47.58;;
46753;SDS011;32500;50.620;3.400;2023-02-01T07:20:19;62.13;;;47.38;;
46753;SDS011;32500;50.620;3.400;2023-02-01T07:22:44;62.05;;;47.28;;
46753;SDS011;32500;50.620;3.400;2023-02-01T07:25:10;66.70;;;47.58;;
46753;SDS011;32500;50.620;3.400;2023-02-01T07:27:36;65.95;;;47.40;;
46753;SDS011;32500;50.620;3.400;2023-02-01T07:30:02;64.40;;;47.20;;
46753;SDS011;32500;50.620;3.400;2023-02-01T07:32:31;68.57;;;47.45;;
46753;SDS011;32500;50.620;3.400;2023-02-01T07:34:57;62.10;;;47.15;;
46753;SDS011;32500;50.620;3.400;2023-02-01T07:37:23;61.47;;;47.53;;
46753;SDS011;32500;50.620;3.400;2023-02-01T07:39:52;62.95;;;47.15;;
46753;SDS011;32500;50.620;3.400;2023-02-01T07:42:17;61.95;;;47.17;;
46753;SDS011;32500;50.620;3.400;2023-02-01T07:44:43;60.95;;;47.42;;
46753;SDS011;32500;50.620;3.400;2023-02-01T07:47:09;62.08;;;47.22;;
46753;SDS011;32500;50.620;3.400;2023-02-01T07:49:35;62.95;;;47.47;;
46753;SDS011;32500;50.620;3.400;2023-02-01T07:52:00;61.17;;;47.92;;
46753;SDS011;32500;50.620;3.400;2023-02-01T07:54:26;61.92;;;47.83;;
46753;SDS011;32500;50.620;3.400;2023-02-01T07:56:52;62.13;;;47.35;;
46753;SDS011;32500;50.620;3.400;2023-02-01T07:59:17;64.00;;;47.65;;
46753;SDS011;32500;50.620;3.400;2023-02-01T08:01:43;61.55;;;47.47;;
46753;SDS011;32500;50.620;3.400;2023-02-01T08:04:12;62.50;;;47.33;;
46753;SDS011;32500;50.620;3.400;2023-02-01T08:06:38;59.95;;;47.33;;
46753;SDS011;32500;50.620;3.400;2023-02-01T08:09:04;62.72;;;47.53;;
46753;SDS011;32500;50.620;3.400;2023-02-01T08:11:32;62.15;;;47.33;;
46753;SDS011;32500;50.620;3.400;2023-02-01T08:13:59;62.75;;;47.97;;
46753;SDS011;32500;50.620;3.400;2023-02-01T08:16:25;63.72;;;47.53;;
46753;SDS011;32500;50.620;3.400;2023-02-01T08:18:51;63.00;;;47.60;;
46753;SDS011;32500;50.620;3.400;2023-02-01T08:21:22;65.22;;;48.03;;
46753;SDS011;32500;50.620;3.400;2023-02-01T08:26:16;61.83;;;47.17;;
46753;SDS011;32500;50.620;3.400;2023-02-01T08:29:02;60.65;;;47.28;;
46753;SDS011;32500;50.620;3.400;2023-02-01T08:31:30;64.07;;;47.55;;
46753;SDS011;32500;50.620;3.400;2023-02-01T08:33:57;61.75;;;47.75;;
46753;SDS011;32500;50.620;3.400;2023-02-01T08:36:25;61.95;;;47.50;;
46753;SDS011;32500;50.620;3.400;2023-02-01T08:38:52;64.43;;;47.47;;
46753;SDS011;32500;50.620;3.400;2023-02-01T08:41:19;61.25;;;47.33;;
46753;SDS011;32500;50.620;3.400;2023-02-01T08:43:47;64.80;;;48.00;;
46753;SDS011;32500;50.620;3.400;2023-02-01T08:46:14;63.83;;;48.20;;
46753;SDS011;32500;50.620;3.400;2023-02-01T08:48:40;63.88;;;48.55;;
46753;SDS011;32500;50.620;3.400;2023-02-01T08:51:07;64.93;;;48.33;;
46753;SDS011;32500;50.620;3.400;2023-02-01T08:53:38;66.25;;;48.30;;
46753;SDS011;32500;50.620;3.400;2023-02-01T08:56:06;64.78;;;48.95;;
46753;SDS011;32500;50.620;3.400;2023-02-01T08:58:32;68.03;;;50.85;;
46753;SDS011;32500;50.620;3.400;2023-02-01T09:01:05;75.45;;;53.03;;
46753;SDS011;32500;50.620;3.400;2023-02-01T09:03:35;82.95;;;59.65;;
46753;SDS011;32500;50.620;3.400;2023-02-01T09:06:01;89.43;;;63.95;;
46753;SDS011;32500;50.620;3.400;2023-02-01T09:08:28;90.25;;;62.00;;
46753;SDS011;32500;50.620;3.400;2023-02-01T09:10:57;98.85;;;64.97;;
46753;SDS011;32500;50.620;3.400;2023-02-01T09:13:27;99.22;;;65.55;;
46753;SDS011;32500;50.620;3.400;2023-02-01T09:15:52;107.53;;;69.68;;
46753;SDS011;32500;50.620;3.400;2023-02-01T09:18:18;110.45;;;72.82;;
46753;SDS011;32500;50.620;3.400;2023-02-01T09:20:44;102.28;;;71.10;;
46753;SDS011;32500;50.620;3.400;2023-02-01T09:23:10;110.78;;;75.15;;
46753;SDS011;32500;50.620;3.400;2023-02-01T09:25:36;130.57;;;82.88;;
46753;SDS011;32500;50.620;3.400;2023-02-01T09:28:03;103.30;;;71.70;;
46753;SDS011;32500;50.620;3.400;2023-02-01T09:30:31;99.75;;;68.95;;
46753;SDS011;32500;50.620;3.400;2023-02-01T09:33:00;107.40;;;72.80;;
46753;SDS011;32500;50.620;3.400;2023-02-01T09:35:26;105.72;;;72.28;;
46753;SDS011;32500;50.620;3.400;2023-02-01T09:37:54;103.55;;;70.97;;
46753;SDS011;32500;50.620;3.400;2023-02-01T09:40:20;100.80;;;68.93;;
46753;SDS011;32500;50.620;3.400;2023-02-01T09:48:20;95.25;;;67.28;;
46753;SDS011;32500;50.620;3.400;2023-02-01T09:50:57;99.07;;;68.40;;
46753;SDS011;32500;50.620;3.400;2023-02-01T09:55:55;89.35;;;64.05;;
46753;SDS011;32500;50.620;3.400;2023-02-01T10:01:03;87.20;;;63.08;;
46753;SDS011;32500;50.620;3.400;2023-02-01T10:03:32;84.18;;;59.50;;
46753;SDS011;32500;50.620;3.400;2023-02-01T10:12:04;82.80;;;59.38;;
46753;SDS011;32500;50.620;3.400;2023-02-01T10:15:02;128.77;;;81.93;;
46753;SDS011;32500;50.620;3.400;2023-02-01T10:26:42;102.95;;;69.43;;
46753;SDS011;32500;50.620;3.400;2023-02-01T10:29:15;108.40;;;68.68;;
46753;SDS011;32500;50.620;3.400;2023-02-01T10:31:47;96.22;;;60.83;;
46753;SDS011;32500;50.620;3.400;2023-02-01T10:36:50;87.25;;;61.70;;
46753;SDS011;32500;50.620;3.400;2023-02-01T10:39:20;85.97;;;61.13;;
46753;SDS011;32500;50.620;3.400;2023-02-01T10:41:46;88.97;;;60.22;;
46753;SDS011;32500;50.620;3.400;2023-02-01T10:44:16;86.95;;;58.92;;
46753;SDS011;32500;50.620;3.400;2023-02-01T10:46:47;84.25;;;59.63;;
46753;SDS011;32500;50.620;3.400;2023-02-01T10:49:26;82.53;;;57.00;;
46753;SDS011;32500;50.620;3.400;2023-02-01T10:54:32;80.45;;;56.97;;
46753;SDS011;32500;50.620;3.400;2023-02-01T10:56:59;82.93;;;56.30;;
46753;SDS011;32500;50.620;3.400;2023-02-01T10:59:25;81.72;;;56.45;;
46753;SDS011;32500;50.620;3.400;2023-02-01T11:01:58;78.88;;;56.03;;
46753;SDS011;32500;50.620;3.400;2023-02-01T11:04:26;74.65;;;55.80;;
46753;SDS011;32500;50.620;3.400;2023-02-01T11:07:19;76.85;;;54.75;;
46753;SDS011;32500;50.620;3.400;2023-02-01T11:09:50;78.68;;;55.00;;
46753;SDS011;32500;50.620;3.400;2023-02-01T11:12:36;79.33;;;55.90;;
46753;SDS011;32500;50.620;3.400;2023-02-01T11:17:44;74.20;;;54.42;;
46753;SDS011;32500;50.620;3.400;2023-02-01T11:20:13;78.65;;;53.85;;
46753;SDS011;32500;50.620;3.400;2023-02-01T11:22:44;74.03;;;53.25;;
46753;SDS011;32500;50.620;3.400;2023-02-01T11:25:18;75.78;;;53.65;;
46753;SDS011;32500;50.620;3.400;2023-02-01T11:27:44;71.93;;;53.10;;
46753;SDS011;32500;50.620;3.400;2023-02-01T11:30:14;71.90;;;53.33;;
46753;SDS011;32500;50.620;3.400;2023-02-01T11:32:44;72.15;;;52.63;;
46753;SDS011;32500;50.620;3.400;2023-02-01T11:35:14;71.50;;;52.97;;
46753;SDS011;32500;50.620;3.400;2023-02-01T11:37:44;74.72;;;52.67;;
46753;SDS011;32500;50.620;3.400;2023-02-01T11:42:56;72.38;;;52.22;;
46753;SDS011;32500;50.620;3.400;2023-02-01T11:45:32;77.18;;;52.58;;
46753;SDS011;32500;50.620;3.400;2023-02-01T11:48:15;72.50;;;51.17;;
46753;SDS011;32500;50.620;3.400;2023-02-01T11:59:33;71.03;;;51.53;;
46753;SDS011;32500;50.620;3.400;2023-02-01T12:02:23;73.50;;;50.90;;
46753;SDS011;32500;50.620;3.400;2023-02-01T12:10:51;69.72;;;50.80;;
46753;SDS011;32500;50.620;3.400;2023-02-01T12:30:16;70.78;;;50.15;;
46753;SDS011;32500;50.620;3.400;2023-02-01T12:46:52;72.75;;;50.85;;
46753;SDS011;32500;50.620;3.400;2023-02-01T12:52:13;72.47;;;50.45;;
46753;SDS011;32500;50.620;3.400;2023-02-01T12:57:33;74.38;;;50.53;;
46753;SDS011;32500;50.620;3.400;2023-02-01T13:09:09;71.22;;;49.90;;
46753;SDS011;32500;50.620;3.400;2023-02-01T13:11:59;70.03;;;49.67;;
46753;SDS011;32500;50.620;3.400;2023-02-01T13:15:11;68.53;;;50.05;;
46753;SDS011;32500;50.620;3.400;2023-02-01T13:17:31;68.82;;;49.95;;
46753;SDS011;32500;50.620;3.400;2023-02-01T13:20:15;72.32;;;49.97;;
46753;SDS011;32500;50.620;3.400;2023-02-01T13:22:50;69.03;;;49.58;;
46753;SDS011;32500;50.620;3.400;2023-02-01T13:28:04;71.00;;;50.10;;
46753;SDS011;32500;50.620;3.400;2023-02-01T13:30:42;71.32;;;50.35;;
46753;SDS011;32500;50.620;3.400;2023-02-01T13:41:29;69.82;;;49.67;;
46753;SDS011;32500;50.620;3.400;2023-02-01T13:44:19;69.97;;;49.92;;
46753;SDS011;32500;50.620;3.400;2023-02-01T13:47:08;66.18;;;50.15;;
46753;SDS011;32500;50.620;3.400;2023-02-01T13:49:45;67.55;;;49.80;;
46753;SDS011;32500;50.620;3.400;2023-02-01T13:52:34;68.47;;;50.60;;
46753;SDS011;32500;50.620;3.400;2023-02-01T13:57:40;69.53;;;50.38;;
46753;SDS011;32500;50.620;3.400;2023-02-01T14:00:22;70.03;;;51.05;;
46753;SDS011;32500;50.620;3.400;2023-02-01T14:03:01;75.18;;;50.95;;
46753;SDS011;32500;50.620;3.400;2023-02-01T14:23:54;73.25;;;51.38;;
46753;SDS011;32500;50.620;3.400;2023-02-01T14:29:25;74.35;;;52.55;;
46753;SDS011;32500;50.620;3.400;2023-02-01T14:32:00;73.88;;;51.95;;
46753;SDS011;32500;50.620;3.400;2023-02-01T14:39:49;74.85;;;52.28;;
46753;SDS011;32500;50.620;3.400;2023-02-01T14:42:44;78.43;;;52.65;;
46753;SDS011;32500;50.620;3.400;2023-02-01T14:47:50;77.05;;;52.15;;
46753;SDS011;32500;50.620;3.400;2023-02-01T14:58:32;76.30;;;52.78;;
46753;SDS011;32500;50.620;3.400;2023-02-01T15:01:26;77.18;;;51.78;;
46753;SDS011;32500;50.620;3.400;2023-02-01T15:04:15;75.13;;;51.53;;
46753;SDS011;32500;50.620;3.400;2023-02-01T15:09:27;72.05;;;51.47;;
46753;SDS011;32500;50.620;3.400;2023-02-01T15:14:39;74.57;;;51.13;;
46753;SDS011;32500;50.620;3.400;2023-02-01T15:17:20;73.88;;;51.75;;
46753;SDS011;32500;50.620;3.400;2023-02-01T15:19:54;73.13;;;51.10;;
46753;SDS011;32500;50.620;3.400;2023-02-01T15:22:22;76.53;;;51.20;;
46753;SDS011;32500;50.620;3.400;2023-02-01T15:24:58;73.05;;;51.15;;
46753;SDS011;32500;50.620;3.400;2023-02-01T15:27:25;76.75;;;51.55;;
46753;SDS011;32500;50.620;3.400;2023-02-01T15:29:52;73.95;;;51.33;;
46753;SDS011;32500;50.620;3.400;2023-02-01T15:32:35;74.82;;;53.33;;
46753;SDS011;32500;50.620;3.400;2023-02-01T15:35:04;74.50;;;52.13;;
46753;SDS011;32500;50.620;3.400;2023-02-01T15:37:50;75.30;;;52.22;;
46753;SDS011;32500;50.620;3.400;2023-02-01T15:40:19;74.50;;;51.85;;
46753;SDS011;32500;50.620;3.400;2023-02-01T15:45:27;72.65;;;51.15;;
46753;SDS011;32500;50.620;3.400;2023-02-01T15:47:55;75.22;;;51.47;;
46753;SDS011;32500;50.620;3.400;2023-02-01T15:50:22;75.10;;;51.92;;
46753;SDS011;32500;50.620;3.400;2023-02-01T15:52:49;73.60;;;51.38;;
46753;SDS011;32500;50.620;3.400;2023-02-01T15:55:18;73.45;;;51.72;;
46753;SDS011;32500;50.620;3.400;2023-02-01T15:57:44;72.68;;;51.20;;
46753;SDS011;32500;50.620;3.400;2023-02-01T16:00:45;73.80;;;51.63;;
46753;SDS011;32500;50.620;3.400;2023-02-01T16:03:27;71.82;;;51.05;;
46753;SDS011;32500;50.620;3.400;2023-02-01T16:06:02;72.88;;;52.08;;
46753;SDS011;32500;50.620;3.400;2023-02-01T16:08:33;73.75;;;51.47;;
46753;SDS011;32500;50.620;3.400;2023-02-01T16:11:14;71.47;;;51.38;;
46753;SDS011;32500;50.620;3.400;2023-02-01T16:13:49;72.25;;;51.20;;
46753;SDS011;32500;50.620;3.400;2023-02-01T16:16:15;75.53;;;51.05;;
46753;SDS011;32500;50.620;3.400;2023-02-01T16:18:40;73.45;;;51.08;;
46753;SDS011;32500;50.620;3.400;2023-02-01T16:21:06;75.32;;;51.75;;
46753;SDS011;32500;50.620;3.400;2023-02-01T16:23:35;77.63;;;51.03;;
46753;SDS011;32500;50.620;3.400;2023-02-01T16:26:02;73.18;;;51.17;;
46753;SDS011;32500;50.620;3.400;2023-02-01T16:28:28;73.03;;;50.95;;
46753;SDS011;32500;50.620;3.400;2023-02-01T16:30:53;76.15;;;50.92;;
46753;SDS011;32500;50.620;3.400;2023-02-01T16:33:19;77.05;;;51.10;;
46753;SDS011;32500;50.620;3.400;2023-02-01T16:35:47;73.85;;;51.30;;
46753;SDS011;32500;50.620;3.400;2023-02-01T16:38:15;73.25;;;51.05;;
46753;SDS011;32500;50.620;3.400;2023-02-01T16:40:44;71.53;;;51.13;;
46753;SDS011;32500;50.620;3.400;2023-02-01T16:45:49;73.60;;;51.13;;
46753;SDS011;32500;50.620;3.400;2023-02-01T16:48:21;76.40;;;50.67;;
46753;SDS011;32500;50.620;3.400;2023-02-01T16:50:55;76.90;;;50.85;;
46753;SDS011;32500;50.620;3.400;2023-02-01T16:53:23;74.25;;;50.83;;
46753;SDS011;32500;50.620;3.400;2023-02-01T16:55:52;73.20;;;50.85;;
46753;SDS011;32500;50.620;3.400;2023-02-01T16:58:18;76.07;;;51.45;;
46753;SDS011;32500;50.620;3.400;2023-02-01T17:00:46;74.50;;;52.28;;
46753;SDS011;32500;50.620;3.400;2023-02-01T17:03:13;74.28;;;51.55;;
46753;SDS011;32500;50.620;3.400;2023-02-01T17:05:42;74.60;;;51.03;;
46753;SDS011;32500;50.620;3.400;2023-02-01T17:08:13;74.82;;;51.47;;
46753;SDS011;32500;50.620;3.400;2023-02-01T17:10:46;72.90;;;51.17;;
46753;SDS011;32500;50.620;3.400;2023-02-01T17:13:12;73.60;;;50.83;;
46753;SDS011;32500;50.620;3.400;2023-02-01T17:15:47;78.43;;;51.20;;
46753;SDS011;32500;50.620;3.400;2023-02-01T17:18:22;76.50;;;50.97;;
46753;SDS011;32500;50.620;3.400;2023-02-01T17:20:50;77.05;;;51.42;;
46753;SDS011;32500;50.620;3.400;2023-02-01T17:23:17;74.13;;;51.13;;
46753;SDS011;32500;50.620;3.400;2023-02-01T17:25:43;74.13;;;51.13;;
46753;SDS011;32500;50.620;3.400;2023-02-01T17:28:09;73.47;;;50.92;;
46753;SDS011;32500;50.620;3.400;2023-02-01T17:30:36;74.45;;;50.78;;
46753;SDS011;32500;50.620;3.400;2023-02-01T17:33:02;71.53;;;50.53;;
46753;SDS011;32500;50.620;3.400;2023-02-01T17:35:28;74.60;;;51.05;;
46753;SDS011;32500;50.620;3.400;2023-02-01T17:37:56;70.95;;;50.22;;
46753;SDS011;32500;50.620;3.400;2023-02-01T17:40:22;74.35;;;50.60;;
46753;SDS011;32500;50.620;3.400;2023-02-01T17:42:48;76.90;;;50.95;;
46753;SDS011;32500;50.620;3.400;2023-02-01T17:45:20;71.70;;;50.55;;
46753;SDS011;32500;50.620;3.400;2023-02-01T17:48:00;77.70;;;50.63;;
46753;SDS011;32500;50.620;3.400;2023-02-01T17:50:29;74.18;;;50.55;;
46753;SDS011;32500;50.620;3.400;2023-02-01T17:52:57;78.13;;;51.10;;
46753;SDS011;32500;50.620;3.400;2023-02-01T17:55:23;74.53;;;50.63;;
46753;SDS011;32500;50.620;3.400;2023-02-01T17:57:50;74.53;;;50.28;;
46753;SDS011;32500;50.620;3.400;2023-02-01T18:00:16;74.50;;;50.72;;